aviador You're here:

KEUG Decoded Metar

EUGENE in OR, USA
Report Time2018-04-23 22:54:00
UTC Time2018-04-23 23:09:18
Flight Rules vfr VFR
Wind010° at 14 kt
W.Decomp.*RWY 34: 13.6 kt HW 3.4 kt RCW
W.Rank010° ranks 1
Current wind is above 010° avg. (8.0)
Visibility9999 m
Phenomena:N/A
Clouds:N/A
Expected CloudBase > 6,000 ft AGL from Temp-Dew spread
CeilingNone
Temp23°C (ISA +9)
Dew Point08°C (38% RH)
AAT17.5°C
QNH1019 hPa
Density Alt1,335 ft
Elevation374 ft
Report Wrong Elevation
Raw Report
KEUG 232254Z 01014KT 10SM CLR 23/08 A3009 RMK AO2 SLP187
T02280083=

Extra information for KEUG:More info

Metar Taf Metar & Taf Last 4 Metars F.Rules Stats Wind Profile Meteogram Temp Stats Airport Information Weather charts Add Link Nearby VenuesMetar ALERT Operation Metar Decoded Social comments

AIRNAV info for KEUG